createdAt,value
2023-06-14T00:00:19.617Z,101559.03
2023-06-14T00:02:48.641Z,101558.72
2023-06-14T00:05:17.118Z,101570.63
2023-06-14T00:07:45.627Z,101574.34
2023-06-14T00:10:14.377Z,101573.50
2023-06-14T00:12:43.622Z,101540.06
2023-06-14T00:15:12.141Z,101542.50
2023-06-14T00:17:42.169Z,101545.97
2023-06-14T00:20:13.452Z,101545.63
2023-06-14T00:22:41.898Z,101522.56
2023-06-14T00:25:23.928Z,101570.06
2023-06-14T00:27:57.793Z,101575.84
2023-06-14T00:30:31.674Z,101548.81
2023-06-14T00:33:04.700Z,101565.09
2023-06-14T00:35:33.350Z,101529.94
2023-06-14T00:38:02.894Z,101573.19
2023-06-14T00:40:31.497Z,101550.78
2023-06-14T00:43:00.297Z,101572.06
2023-06-14T00:45:28.954Z,101559.44
2023-06-14T00:47:58.533Z,101516.59
2023-06-14T00:50:28.941Z,101564.91
2023-06-14T00:52:57.427Z,101571.16
2023-06-14T00:55:26.953Z,101564.81
2023-06-14T00:57:58.662Z,101579.78
2023-06-14T01:00:29.617Z,101581.38
2023-06-14T01:02:58.250Z,101581.47
2023-06-14T01:05:28.595Z,101579.16
2023-06-14T01:08:17.083Z,101560.75
2023-06-14T01:10:55.326Z,101450.69
2023-06-14T01:13:30.208Z,101535.88
2023-06-14T01:15:59.067Z,101579.78
2023-06-14T01:18:30.920Z,101543.16
2023-06-14T01:21:01.400Z,101567.41
2023-06-14T01:23:34.228Z,101575.78
2023-06-14T01:26:04.735Z,101571.13
2023-06-14T01:28:36.951Z,101547.88
2023-06-14T01:31:06.393Z,101577.06
2023-06-14T01:33:37.708Z,101566.00
2023-06-14T01:36:09.306Z,101569.91
2023-06-14T01:38:40.798Z,101568.41
2023-06-14T01:41:10.154Z,101573.34
2023-06-14T01:43:39.817Z,101559.66
2023-06-14T01:46:09.337Z,101572.84
2023-06-14T01:48:37.969Z,101541.13
2023-06-14T01:51:06.423Z,101569.97
2023-06-14T01:53:34.746Z,101531.97
2023-06-14T01:56:04.772Z,101572.81
2023-06-14T01:58:33.924Z,101574.41
2023-06-14T02:01:03.438Z,101562.56
2023-06-14T02:03:32.383Z,101556.34
2023-06-14T02:06:01.518Z,101563.25
2023-06-14T02:08:30.049Z,101509.53
2023-06-14T02:10:58.556Z,101559.94
2023-06-14T02:13:28.342Z,101539.69
2023-06-14T02:15:56.895Z,101579.56
2023-06-14T02:18:26.467Z,101576.06
2023-06-14T02:20:55.030Z,101552.47
2023-06-14T02:23:23.447Z,101573.25
2023-06-14T02:25:54.065Z,101572.00
2023-06-14T02:28:22.981Z,101567.81
2023-06-14T02:30:52.753Z,101528.78
2023-06-14T02:33:26.261Z,101551.94
2023-06-14T02:35:54.802Z,101581.09
2023-06-14T02:38:23.274Z,101586.66
2023-06-14T02:40:52.062Z,101565.69
2023-06-14T02:43:21.252Z,101587.88
2023-06-14T02:45:50.269Z,101538.97
2023-06-14T02:48:22.611Z,101598.38
2023-06-14T02:50:51.322Z,101557.63
2023-06-14T02:53:20.098Z,101581.94
2023-06-14T02:55:49.317Z,101559.13
2023-06-14T02:58:19.410Z,101537.88
2023-06-14T03:00:47.860Z,101567.91
2023-06-14T03:03:17.783Z,101584.31
2023-06-14T03:05:55.721Z,101597.06
2023-06-14T03:08:30.020Z,101556.34
2023-06-14T03:11:03.371Z,101548.28
2023-06-14T03:13:34.631Z,101603.66
2023-06-14T03:16:03.580Z,101598.59
2023-06-14T03:18:36.705Z,101542.59
2023-06-14T03:21:10.238Z,101584.03
2023-06-14T03:23:41.330Z,101592.59
2023-06-14T03:26:15.989Z,101610.72
2023-06-14T03:28:44.698Z,101609.03
2023-06-14T03:31:13.281Z,101608.03
2023-06-14T03:33:42.298Z,101595.28
2023-06-14T03:36:12.272Z,101590.59
2023-06-14T03:38:40.992Z,101614.03
2023-06-14T03:41:11.728Z,101621.28
2023-06-14T03:43:40.210Z,101600.31
2023-06-14T03:46:09.389Z,101616.72
2023-06-14T03:48:38.234Z,101623.28
2023-06-14T03:51:06.951Z,101618.09
2023-06-14T03:53:40.104Z,101632.00
2023-06-14T03:56:13.429Z,101588.53
2023-06-14T03:58:45.168Z,101623.41
2023-06-14T04:01:14.349Z,101593.88
2023-06-14T04:03:42.760Z,101621.56
2023-06-14T04:06:11.691Z,101633.13
2023-06-14T04:08:41.727Z,101635.94
2023-06-14T04:11:11.728Z,101631.22
2023-06-14T04:13:40.649Z,101629.25
2023-06-14T04:16:11.401Z,101638.75
2023-06-14T04:18:39.942Z,101632.53
2023-06-14T04:21:10.992Z,101640.59
2023-06-14T04:23:45.446Z,101634.63
2023-06-14T04:26:17.098Z,101639.69
2023-06-14T04:28:48.110Z,101634.59
2023-06-14T04:31:17.539Z,101642.19
2023-06-14T04:33:48.046Z,101639.97
2023-06-14T04:36:20.963Z,101641.94
2023-06-14T04:38:55.306Z,101613.56
2023-06-14T04:41:30.027Z,101593.94
2023-06-14T04:44:02.490Z,101632.00
2023-06-14T04:46:34.565Z,101644.56
2023-06-14T04:49:04.081Z,101650.25
2023-06-14T04:51:34.712Z,101659.47
2023-06-14T04:54:05.932Z,101644.22
2023-06-14T04:56:34.946Z,101649.91
2023-06-14T04:59:05.651Z,101658.75
2023-06-14T05:01:34.510Z,101661.19
2023-06-14T05:04:03.093Z,101668.91
2023-06-14T05:06:33.050Z,101656.44
2023-06-14T05:09:04.253Z,101664.84
2023-06-14T05:11:32.739Z,101649.69
2023-06-14T05:14:02.554Z,101666.97
2023-06-14T05:16:31.412Z,101666.81
2023-06-14T05:19:02.568Z,101668.34
2023-06-14T05:21:31.555Z,101674.31
2023-06-14T05:24:00.356Z,101635.66
2023-06-14T05:26:31.543Z,101676.84
2023-06-14T05:29:02.473Z,101665.03
2023-06-14T05:31:31.228Z,101667.66
2023-06-14T05:33:59.899Z,101682.81
2023-06-14T05:36:30.031Z,101643.50
2023-06-14T05:39:00.499Z,101679.84
2023-06-14T05:41:31.178Z,101681.31
2023-06-14T05:44:01.249Z,101662.81
2023-06-14T05:46:29.897Z,101667.94
2023-06-14T05:49:01.750Z,101676.56
2023-06-14T05:51:30.388Z,101641.84
2023-06-14T05:53:59.984Z,101693.22
2023-06-14T05:56:29.787Z,101636.63
2023-06-14T05:58:58.969Z,101681.00
2023-06-14T06:01:27.601Z,101697.19
2023-06-14T06:03:56.048Z,101689.38
2023-06-14T06:06:24.410Z,101693.97
2023-06-14T06:08:52.924Z,101627.59
2023-06-14T06:11:21.295Z,101654.47
2023-06-14T06:13:51.726Z,101638.44
2023-06-14T06:16:20.141Z,101621.97
2023-06-14T06:18:48.444Z,101706.59
2023-06-14T06:21:16.999Z,101705.63
2023-06-14T06:23:45.324Z,101698.38
2023-06-14T06:26:13.707Z,101691.59
2023-06-14T06:28:42.254Z,101612.97
2023-06-14T06:31:14.622Z,101708.28
2023-06-14T06:33:43.288Z,101703.56
2023-06-14T06:36:12.941Z,101709.66
2023-06-14T06:38:41.917Z,101715.97
2023-06-14T06:41:11.308Z,101714.78
2023-06-14T06:43:39.808Z,101697.50
2023-06-14T06:46:09.525Z,101701.81
2023-06-14T06:48:39.132Z,101722.38
2023-06-14T06:51:07.817Z,101728.59
2023-06-14T06:53:41.975Z,101726.84
2023-06-14T06:56:12.598Z,101729.38
2023-06-14T06:58:41.062Z,101731.69
2023-06-14T07:01:10.373Z,101739.06
2023-06-14T07:03:40.150Z,101736.81
2023-06-14T07:06:11.490Z,101711.13
2023-06-14T07:08:40.453Z,101751.72
2023-06-14T07:11:09.613Z,101721.84
2023-06-14T07:13:38.098Z,101726.94
2023-06-14T07:16:07.834Z,101748.69
2023-06-14T07:18:36.436Z,101696.69
2023-06-14T07:21:06.941Z,101702.34
2023-06-14T07:23:37.033Z,101753.56
2023-06-14T07:26:05.327Z,101756.47
2023-06-14T07:28:33.758Z,101759.66
2023-06-14T07:31:02.121Z,101768.25
2023-06-14T07:33:30.690Z,101759.50
2023-06-14T07:35:59.171Z,101704.53
2023-06-14T07:38:29.430Z,101757.47
2023-06-14T07:40:57.842Z,101762.53
2023-06-14T07:43:26.278Z,101762.13
2023-06-14T07:46:06.952Z,101697.53
2023-06-14T07:48:36.652Z,101764.06
2023-06-14T07:51:05.162Z,101758.16
2023-06-14T07:53:35.220Z,101766.25
2023-06-14T07:56:03.811Z,101631.81
2023-06-14T07:58:32.176Z,101763.25
2023-06-14T08:01:01.126Z,101735.19
2023-06-14T08:03:29.566Z,101772.19
2023-06-14T08:05:58.056Z,101768.84
2023-06-14T08:08:26.601Z,101644.78
2023-06-14T08:10:56.521Z,101743.16
2023-06-14T08:13:24.864Z,101761.81
2023-06-14T08:15:53.266Z,101778.44
2023-06-14T08:18:21.678Z,101745.31
2023-06-14T08:20:51.290Z,101776.00
2023-06-14T08:23:22.007Z,101720.09
2023-06-14T08:25:50.422Z,101768.81
2023-06-14T08:28:20.118Z,101741.81
2023-06-14T08:30:48.629Z,101762.88
2023-06-14T08:33:17.668Z,101732.09
2023-06-14T08:35:46.293Z,101764.78
2023-06-14T08:38:15.155Z,101768.31
2023-06-14T08:40:44.688Z,101757.59
2023-06-14T08:43:13.057Z,101761.97
2023-06-14T08:45:42.899Z,101709.22
2023-06-14T08:48:12.482Z,101709.00
2023-06-14T08:50:44.196Z,101766.97
2023-06-14T08:53:21.305Z,101758.88
2023-06-14T08:55:50.967Z,101767.63
2023-06-14T08:58:20.716Z,101763.72
2023-06-14T09:00:53.400Z,101737.31
2023-06-14T09:03:21.896Z,101681.03
2023-06-14T09:05:51.135Z,101773.75
2023-06-14T09:08:20.198Z,101772.84
2023-06-14T09:10:48.536Z,101778.69
2023-06-14T09:13:17.203Z,101775.81
2023-06-14T09:15:45.694Z,101765.44
2023-06-14T09:18:16.036Z,101772.84
2023-06-14T09:20:44.391Z,101700.63
2023-06-14T09:23:13.877Z,101740.63
2023-06-14T09:25:46.149Z,101775.81
2023-06-14T09:28:14.840Z,101786.63
2023-06-14T09:30:43.292Z,101780.84
2023-06-14T09:33:11.989Z,101788.28
2023-06-14T09:35:41.717Z,101790.34
2023-06-14T09:38:11.055Z,101702.69
2023-06-14T09:40:39.417Z,101747.75
2023-06-14T09:43:11.655Z,101682.66
2023-06-14T09:45:42.184Z,101755.72
2023-06-14T09:48:11.337Z,101750.56
2023-06-14T09:50:41.468Z,101789.00
2023-06-14T09:53:13.107Z,101683.09
2023-06-14T09:55:43.921Z,101736.47
2023-06-14T09:58:14.337Z,101784.50
2023-06-14T10:00:44.872Z,101787.50
2023-06-14T10:03:23.406Z,101779.94
2023-06-14T10:05:53.579Z,101758.81
2023-06-14T10:08:27.675Z,101785.91
2023-06-14T10:10:57.542Z,101781.53
2023-06-14T10:13:27.901Z,101784.78
2023-06-14T10:16:08.661Z,101768.41
2023-06-14T10:18:47.553Z,101779.22
2023-06-14T10:21:26.544Z,101777.41
2023-06-14T10:23:55.918Z,101773.09
2023-06-14T10:26:26.152Z,101768.22
2023-06-14T10:29:03.485Z,101783.25
2023-06-14T10:31:46.021Z,101783.38
2023-06-14T10:34:24.103Z,101775.19
2023-06-14T10:37:05.041Z,101778.50
2023-06-14T10:39:34.956Z,101784.06
2023-06-14T10:42:06.583Z,101752.53
2023-06-14T10:44:46.513Z,101763.41
2023-06-14T10:47:29.669Z,101763.44
2023-06-14T10:50:05.440Z,101773.38
2023-06-14T10:52:37.572Z,101784.09
2023-06-14T10:55:10.864Z,101766.38
2023-06-14T10:57:49.179Z,101784.06
2023-06-14T11:00:23.997Z,101778.84
2023-06-14T11:03:38.796Z,101767.22
2023-06-14T11:06:17.156Z,101752.66
2023-06-14T11:09:24.129Z,101784.00
2023-06-14T11:11:56.295Z,101785.50
2023-06-14T11:14:24.591Z,101778.06
2023-06-14T11:16:53.212Z,101769.63
2023-06-14T11:19:21.591Z,101773.41
2023-06-14T11:21:51.009Z,101771.56
2023-06-14T11:24:22.042Z,101779.97
2023-06-14T11:26:51.596Z,101779.34
2023-06-14T11:29:22.851Z,101772.94
2023-06-14T11:31:51.304Z,101762.91
2023-06-14T11:34:21.176Z,101772.84
2023-06-14T11:36:49.737Z,101768.75
2023-06-14T11:39:18.235Z,101765.63
2023-06-14T11:41:48.256Z,101767.88
2023-06-14T11:44:16.568Z,101741.75
2023-06-14T11:46:46.029Z,101771.78
2023-06-14T11:49:14.412Z,101762.41
2023-06-14T11:51:45.767Z,101758.75
2023-06-14T11:54:14.681Z,101769.13
2023-06-14T11:56:43.394Z,101716.59
2023-06-14T11:59:15.540Z,101762.41
2023-06-14T12:01:46.525Z,101766.53
2023-06-14T12:04:15.185Z,101772.59
2023-06-14T12:06:44.576Z,101768.78
2023-06-14T12:09:18.495Z,101730.88
2023-06-14T12:11:46.937Z,101728.94
2023-06-14T12:14:16.659Z,101766.50
2023-06-14T12:16:45.080Z,101762.44
2023-06-14T12:19:18.056Z,101738.75
2023-06-14T12:21:50.675Z,101751.41
2023-06-14T12:24:19.602Z,101760.50
2023-06-14T12:26:48.345Z,101775.00
2023-06-14T12:29:18.140Z,101759.63
2023-06-14T12:31:46.360Z,101765.81
2023-06-14T12:34:14.877Z,101700.41
2023-06-14T12:36:45.977Z,101759.78
2023-06-14T12:39:15.196Z,101737.75
2023-06-14T12:41:43.627Z,101730.97
2023-06-14T12:44:13.483Z,101761.59
2023-06-14T12:46:44.815Z,101756.06
2023-06-14T12:49:14.297Z,101742.31
2023-06-14T12:51:42.776Z,101735.59
2023-06-14T12:54:11.694Z,101755.75
2023-06-14T12:56:40.360Z,101764.22
2023-06-14T12:59:09.000Z,101765.03
2023-06-14T13:01:39.815Z,101765.63
2023-06-14T13:04:09.818Z,101763.84
2023-06-14T13:06:38.233Z,101762.91
2023-06-14T13:09:07.501Z,101761.38
2023-06-14T13:11:36.405Z,101743.03
2023-06-14T13:14:14.048Z,101737.34
2023-06-14T13:16:46.271Z,101755.78
2023-06-14T13:19:15.931Z,101758.34
2023-06-14T13:21:44.261Z,101765.31
2023-06-14T13:24:12.941Z,101769.63
2023-06-14T13:26:41.622Z,101753.47
2023-06-14T13:29:09.883Z,101741.88
2023-06-14T13:31:38.338Z,101750.81
2023-06-14T13:34:06.782Z,101768.25
2023-06-14T13:36:36.612Z,101765.72
2023-06-14T13:39:05.060Z,101764.97
2023-06-14T13:41:35.960Z,101777.69
2023-06-14T13:44:05.829Z,101785.97
2023-06-14T13:46:34.575Z,101775.53
2023-06-14T13:49:03.217Z,101771.72
2023-06-14T13:51:31.904Z,101751.06
2023-06-14T13:54:02.033Z,101771.75
2023-06-14T13:56:31.267Z,101754.81
2023-06-14T13:59:00.187Z,101765.72
2023-06-14T14:01:30.087Z,101751.25
2023-06-14T14:03:59.885Z,101718.59
2023-06-14T14:06:28.217Z,101744.81
2023-06-14T14:08:56.643Z,101757.22
2023-06-14T14:11:26.456Z,101744.50
2023-06-14T14:13:55.450Z,101764.91
2023-06-14T14:16:24.292Z,101753.47
2023-06-14T14:18:53.004Z,101757.09
2023-06-14T14:21:21.559Z,101753.78
2023-06-14T14:23:50.973Z,101744.28
2023-06-14T14:26:19.399Z,101736.56
2023-06-14T14:28:49.094Z,101764.78
2023-06-14T14:31:17.490Z,101751.47
2023-06-14T14:33:46.287Z,101749.47
2023-06-14T14:36:14.966Z,101760.31
2023-06-14T14:38:43.661Z,101761.13
2023-06-14T14:41:12.237Z,101742.09
2023-06-14T14:43:40.795Z,101752.22
2023-06-14T14:46:10.816Z,101746.59
2023-06-14T14:48:39.104Z,101744.75
2023-06-14T14:51:07.710Z,101739.19
2023-06-14T14:53:36.362Z,101748.41
2023-06-14T14:56:07.049Z,101753.19
2023-06-14T14:58:35.907Z,101751.75
2023-06-14T15:01:04.605Z,101759.03
2023-06-14T15:03:49.706Z,101756.59
2023-06-14T15:06:23.591Z,101738.81
2023-06-14T15:08:53.020Z,101701.91
2023-06-14T15:11:21.539Z,101744.78
2023-06-14T15:13:50.034Z,101689.00
2023-06-14T15:16:18.741Z,101644.19
2023-06-14T15:18:48.539Z,101738.19
2023-06-14T15:21:17.230Z,101737.44
2023-06-14T15:23:45.831Z,101694.84
2023-06-14T15:26:14.355Z,101741.53
2023-06-14T15:28:42.966Z,101746.88
2023-06-14T15:31:11.434Z,101756.47
2023-06-14T15:33:39.774Z,101725.31
2023-06-14T15:36:12.534Z,101743.66
2023-06-14T15:38:40.956Z,101752.16
2023-06-14T15:41:09.559Z,101748.28
2023-06-14T15:43:37.929Z,101756.66
2023-06-14T15:46:06.320Z,101712.91
2023-06-14T15:48:35.058Z,101708.97
2023-06-14T15:51:03.684Z,101754.78
2023-06-14T15:53:36.768Z,101757.50
2023-06-14T15:56:05.394Z,101746.69
2023-06-14T15:58:33.834Z,101728.53
2023-06-14T16:01:02.414Z,101748.56
2023-06-14T16:03:31.102Z,101749.34
2023-06-14T16:05:59.753Z,101728.44
2023-06-14T16:08:40.118Z,101749.69
2023-06-14T16:11:11.126Z,101745.50
2023-06-14T16:13:39.758Z,101712.13
2023-06-14T16:16:08.050Z,101738.22
2023-06-14T16:18:36.850Z,101731.94
2023-06-14T16:21:07.349Z,101738.81
2023-06-14T16:23:35.922Z,101737.50
2023-06-14T16:26:04.462Z,101744.38
2023-06-14T16:28:34.943Z,101730.69
2023-06-14T16:31:03.408Z,101713.59
2023-06-14T16:33:32.066Z,101737.91
2023-06-14T16:36:00.750Z,101742.66
2023-06-14T16:38:29.187Z,101741.34
2023-06-14T16:40:57.742Z,101741.84
2023-06-14T16:43:26.262Z,101722.88
2023-06-14T16:45:55.949Z,101735.84
2023-06-14T16:48:24.617Z,101748.28
2023-06-14T16:50:53.506Z,101735.06
2023-06-14T16:53:21.904Z,101740.56
2023-06-14T16:55:50.766Z,101735.63
2023-06-14T16:58:19.105Z,101744.50
2023-06-14T17:00:47.479Z,101717.22
2023-06-14T17:03:17.314Z,101714.72
2023-06-14T17:05:57.666Z,101732.91
2023-06-14T17:08:26.465Z,101744.25
2023-06-14T17:10:56.383Z,101724.41
2023-06-14T17:13:25.054Z,101729.34
2023-06-14T17:15:53.411Z,101726.88
2023-06-14T17:18:23.022Z,101752.78
2023-06-14T17:20:52.739Z,101755.53
2023-06-14T17:23:21.401Z,101741.66
2023-06-14T17:25:49.894Z,101755.41
2023-06-14T17:28:19.037Z,101762.56
2023-06-14T17:30:47.243Z,101759.25
2023-06-14T17:33:20.282Z,101744.88
2023-06-14T17:35:51.290Z,101764.97
2023-06-14T17:38:19.883Z,101771.78
2023-06-14T17:40:51.178Z,101764.59
2023-06-14T17:43:20.210Z,101770.84
2023-06-14T17:45:48.536Z,101768.06
2023-06-14T17:48:17.097Z,101763.91
2023-06-14T17:50:45.809Z,101756.03
2023-06-14T17:53:15.652Z,101776.63
2023-06-14T17:55:44.175Z,101781.25
2023-06-14T17:58:12.659Z,101770.06
2023-06-14T18:00:41.311Z,101766.94
2023-06-14T18:03:09.995Z,101759.78
2023-06-14T18:05:38.890Z,101768.31
2023-06-14T18:08:07.656Z,101742.38
2023-06-14T18:10:38.398Z,101762.53
2023-06-14T18:13:07.174Z,101762.91
2023-06-14T18:15:35.649Z,101784.66
2023-06-14T18:18:04.571Z,101756.25
2023-06-14T18:20:34.708Z,101772.13
2023-06-14T18:23:03.230Z,101782.69
2023-06-14T18:25:31.650Z,101793.00
2023-06-14T18:28:02.451Z,101796.81
2023-06-14T18:30:30.774Z,101796.53
2023-06-14T18:32:59.201Z,101802.94
2023-06-14T18:35:29.677Z,101796.13
2023-06-14T18:37:57.888Z,101801.28
2023-06-14T18:40:26.189Z,101807.13
2023-06-14T18:42:54.491Z,101777.25
2023-06-14T18:45:24.353Z,101809.34
2023-06-14T18:47:52.693Z,101805.91
2023-06-14T18:50:20.881Z,101801.75
2023-06-14T18:52:50.425Z,101811.66
2023-06-14T18:55:19.902Z,101818.91
2023-06-14T18:57:48.251Z,101818.91
2023-06-14T19:00:18.673Z,101812.25
2023-06-14T19:02:48.821Z,101817.44
2023-06-14T19:05:19.041Z,101816.00
2023-06-14T19:07:48.842Z,101821.09
2023-06-14T19:10:17.288Z,101826.06
2023-06-14T19:12:45.883Z,101827.91
2023-06-14T19:15:14.284Z,101828.94
2023-06-14T19:17:43.599Z,101790.66
2023-06-14T19:20:13.782Z,101828.69
2023-06-14T19:23:00.054Z,101802.34
2023-06-14T19:28:57.904Z,101823.25
2023-06-14T19:31:27.016Z,101837.78
2023-06-14T19:33:55.603Z,101837.09
2023-06-14T19:36:23.907Z,101840.59
2023-06-14T19:38:52.870Z,101805.31
2023-06-14T19:41:21.074Z,101839.22
2023-06-14T19:43:49.438Z,101846.78
2023-06-14T19:46:19.795Z,101843.41
2023-06-14T19:48:50.444Z,101854.31
2023-06-14T19:51:18.873Z,101854.16
2023-06-14T19:53:47.074Z,101856.75
2023-06-14T19:56:15.981Z,101862.66
2023-06-14T19:58:44.140Z,101856.22
2023-06-14T20:01:12.894Z,101838.50
2023-06-14T20:03:44.731Z,101863.19
2023-06-14T20:06:14.464Z,101868.47
2023-06-14T20:08:42.769Z,101858.88
2023-06-14T20:11:11.037Z,101860.38
2023-06-14T20:13:39.250Z,101871.47
2023-06-14T20:16:07.625Z,101874.41
2023-06-14T20:18:36.113Z,101844.06
2023-06-14T20:21:06.174Z,101885.25
2023-06-14T20:23:34.394Z,101885.44
2023-06-14T20:26:02.733Z,101888.53
2023-06-14T20:28:32.311Z,101888.28
2023-06-14T20:31:00.669Z,101889.66
2023-06-14T20:33:30.366Z,101860.56
2023-06-14T20:35:58.818Z,101894.41
2023-06-14T20:38:28.825Z,101891.88
2023-06-14T20:40:59.314Z,101902.91
2023-06-14T20:43:29.050Z,101870.66
2023-06-14T20:45:58.093Z,101897.81
2023-06-14T20:48:27.305Z,101904.28
2023-06-14T20:50:58.745Z,101910.50
2023-06-14T20:53:28.340Z,101858.94
2023-06-14T20:55:56.617Z,101916.03
2023-06-14T20:58:25.877Z,101916.84
2023-06-14T21:00:54.659Z,101921.19
2023-06-14T21:03:22.986Z,101905.28
2023-06-14T21:05:52.574Z,101916.28
2023-06-14T21:08:20.819Z,101919.00
2023-06-14T21:10:50.435Z,101921.22
2023-06-14T21:13:18.769Z,101926.03
2023-06-14T21:15:47.463Z,101900.97
2023-06-14T21:18:16.032Z,101899.91
2023-06-14T21:20:44.251Z,101927.53
2023-06-14T21:23:12.541Z,101926.88
2023-06-14T21:25:40.841Z,101935.41
2023-06-14T21:28:12.032Z,101912.94
2023-06-14T21:30:40.600Z,101906.97
2023-06-14T21:33:09.241Z,101929.69
2023-06-14T21:35:37.725Z,101934.47
2023-06-14T21:38:06.413Z,101893.19
2023-06-14T21:40:34.967Z,101919.13
2023-06-14T21:43:03.260Z,101881.75
2023-06-14T21:45:33.182Z,101929.44
2023-06-14T21:48:02.837Z,101933.38
2023-06-14T21:50:32.217Z,101935.72
2023-06-14T21:53:00.658Z,101929.84
2023-06-14T21:55:29.144Z,101928.72
2023-06-14T21:57:57.454Z,101928.47
2023-06-14T22:00:26.108Z,101933.88
2023-06-14T22:02:56.012Z,101941.16
2023-06-14T22:05:24.612Z,101920.13
2023-06-14T22:07:53.082Z,101942.84
2023-06-14T22:10:21.730Z,101933.25
2023-06-14T22:12:52.617Z,101888.72
2023-06-14T22:15:22.344Z,101905.88
2023-06-14T22:17:53.116Z,101910.53
2023-06-14T22:20:23.041Z,101937.28
2023-06-14T22:22:51.549Z,101945.69
2023-06-14T22:25:20.662Z,101932.16
2023-06-14T22:27:51.153Z,101920.22
2023-06-14T22:30:19.697Z,101945.88
2023-06-14T22:32:50.305Z,101950.34
2023-06-14T22:35:19.602Z,101954.63
2023-06-14T22:37:50.976Z,101919.72
2023-06-14T22:40:19.817Z,101943.72
2023-06-14T22:42:50.835Z,101947.19
2023-06-14T22:45:24.473Z,101946.50
2023-06-14T22:47:54.752Z,101942.50
2023-06-14T22:50:23.965Z,101917.88
2023-06-14T22:52:54.227Z,101942.19
2023-06-14T22:55:27.175Z,101950.19
2023-06-14T22:57:55.672Z,101943.28
2023-06-14T23:00:24.451Z,101949.44
2023-06-14T23:02:53.451Z,101939.44
2023-06-14T23:05:22.144Z,101935.69
2023-06-14T23:07:50.934Z,101950.25
2023-06-14T23:10:24.520Z,101919.31
2023-06-14T23:12:52.907Z,101950.97
2023-06-14T23:15:21.815Z,101950.31
2023-06-14T23:17:51.749Z,101944.91
2023-06-14T23:20:21.429Z,101909.06
2023-06-14T23:22:50.574Z,101951.75
2023-06-14T23:25:20.542Z,101955.81
2023-06-14T23:27:49.857Z,101959.31
2023-06-14T23:30:18.685Z,101954.28
2023-06-14T23:32:51.016Z,101955.47
2023-06-14T23:35:20.433Z,101921.78
2023-06-14T23:37:48.990Z,101963.66
2023-06-14T23:40:17.647Z,101956.91
2023-06-14T23:42:52.348Z,101920.88
2023-06-14T23:45:20.714Z,101924.25
2023-06-14T23:47:49.250Z,101964.72
2023-06-14T23:50:18.047Z,101963.03
2023-06-14T23:52:46.643Z,101966.47
2023-06-14T23:55:20.901Z,101970.84
2023-06-14T23:57:51.670Z,101967.13
